Time;durP1;ratioP1;P1;durP2;ratioP2;P2;SDS_P1;SDS_P2;PMS_P1;PMS_P2;Temp;Humidity;BMP_temperature;BMP_pressure;BME280_temperature;BME280_humidity;BME280_pressure;Samples;Min_cycle;Max_cycle;Signal;HPM_P1;HPM_P2
2023/03/03 00:00:43;;;;;;;11.63;9.25;;;;;;;2.63;100.00;93075.88;5068605;28;20105;-70
2023/03/03 00:03:14;;;;;;;9.48;8.25;;;;;;;2.62;100.00;93077.66;5067985;28;20090;-70
2023/03/03 00:05:41;;;;;;;11.13;9.02;;;;;;;2.66;100.00;93073.84;5069322;28;20538;-70
2023/03/03 00:08:10;;;;;;;10.73;8.43;;;;;;;2.65;100.00;93074.00;5072444;28;20049;-70
2023/03/03 00:10:38;;;;;;;11.93;8.95;;;;;;;2.31;100.00;93022.59;5071822;28;20056;-70
2023/03/03 00:13:06;;;;;;;11.82;9.38;;;;;;;2.49;100.00;93062.16;5071928;28;20094;-70
2023/03/03 00:15:33;;;;;;;11.75;9.45;;;;;;;2.35;100.00;93063.59;5072572;28;20040;-70
2023/03/03 00:17:59;;;;;;;11.65;10.13;;;;;;;2.26;100.00;93058.56;5071640;28;20052;-70
2023/03/03 00:20:34;;;;;;;11.30;9.48;;;;;;;2.25;100.00;93058.72;5071732;28;20090;-70
2023/03/03 00:23:17;;;;;;;13.43;10.15;;;;;;;2.20;100.00;93043.22;5071908;28;20080;-70
2023/03/03 00:25:45;;;;;;;12.68;10.18;;;;;;;2.14;100.00;93045.44;5071360;28;20059;-70
2023/03/03 00:28:24;;;;;;;12.23;10.65;;;;;;;2.21;100.00;93043.06;5071836;28;20044;-70
2023/03/03 00:30:52;;;;;;;12.18;10.43;;;;;;;2.20;100.00;93049.09;5071522;28;20470;-70
2023/03/03 00:33:28;;;;;;;15.43;10.75;;;;;;;2.12;100.00;93029.63;5071151;28;20056;-70
2023/03/03 00:35:56;;;;;;;12.48;10.25;;;;;;;2.26;100.00;93045.91;5071725;28;20060;-70
2023/03/03 00:38:24;;;;;;;14.18;10.65;;;;;;;2.33;100.00;93040.97;5071201;28;20056;-70
2023/03/03 00:40:51;;;;;;;15.32;10.48;;;;;;;2.29;100.00;93023.72;5071400;28;20088;-70
2023/03/03 00:43:20;;;;;;;14.27;11.07;;;;;;;2.52;100.00;93042.34;5070966;28;20450;-70
2023/03/03 00:45:49;;;;;;;14.70;11.60;;;;;;;2.48;100.00;93040.28;5071596;28;20098;-70
2023/03/03 00:48:25;;;;;;;14.25;11.32;;;;;;;2.46;100.00;93024.47;5071381;28;20126;-70
2023/03/03 00:50:53;;;;;;;;;;;;;;;2.66;100.00;93035.00;5072444;28;20106;-70
2023/03/03 00:53:21;;;;;;;12.02;9.98;;;;;;;2.55;100.00;93031.09;5057867;28;19924;-70
2023/03/03 00:55:51;;;;;;;14.50;11.05;;;;;;;2.58;100.00;93032.50;5071368;28;20114;-70
2023/03/03 00:58:20;;;;;;;12.93;9.85;;;;;;;2.45;100.00;93033.03;5071158;28;20769;-71
2023/03/03 01:00:48;;;;;;;11.77;9.60;;;;;;;2.42;100.00;93028.28;5071582;28;20084;-70
2023/03/03 01:03:17;;;;;;;12.98;10.70;;;;;;;2.38;100.00;93025.28;5071543;28;20036;-70
2023/03/03 01:05:44;;;;;;;11.82;9.93;;;;;;;2.43;100.00;93027.31;5058001;28;20160;-70
2023/03/03 01:08:11;;;;;;;13.65;10.65;;;;;;;2.48;100.00;93022.53;5071386;28;20070;-70
2023/03/03 01:10:42;;;;;;;13.57;10.35;;;;;;;2.51;100.00;93022.22;5070902;28;20079;-70
2023/03/03 01:13:10;;;;;;;13.23;10.02;;;;;;;2.55;100.00;93015.88;5071183;28;20092;-69
2023/03/03 01:15:39;;;;;;;12.65;9.93;;;;;;;2.66;100.00;93019.78;5071203;28;20102;-69
2023/03/03 01:18:06;;;;;;;12.68;10.75;;;;;;;2.60;100.00;93021.22;5070141;28;20084;-69
2023/03/03 01:20:33;;;;;;;11.88;9.80;;;;;;;2.69;100.00;93016.91;5071209;28;20110;-69
2023/03/03 01:23:00;;;;;;;11.60;10.18;;;;;;;2.74;100.00;93009.56;5070939;28;20052;-70
2023/03/03 01:25:26;;;;;;;12.68;10.10;;;;;;;2.78;100.00;93010.06;5070955;28;20451;-70
2023/03/03 01:27:53;;;;;;;12.35;9.38;;;;;;;2.78;100.00;93010.06;5071027;28;20117;-69
2023/03/03 01:30:21;;;;;;;11.10;9.35;;;;;;;2.82;100.00;93007.97;5070076;28;20048;-70
2023/03/03 01:32:48;;;;;;;12.93;9.75;;;;;;;2.80;100.00;93008.94;5070332;28;20116;-70
2023/03/03 01:35:15;;;;;;;13.35;10.45;;;;;;;2.75;100.00;92997.69;5070851;28;20040;-69
2023/03/03 01:37:42;;;;;;;13.30;10.70;;;;;;;2.83;100.00;93007.81;5070280;28;20110;-69
2023/03/03 01:40:16;;;;;;;14.02;10.65;;;;;;;2.62;100.00;93011.72;5070504;28;20110;-70
2023/03/03 01:42:43;;;;;;;13.80;11.30;;;;;;;2.41;100.00;93009.75;5070536;28;20489;-69
2023/03/03 01:45:15;;;;;;;14.70;12.07;;;;;;;2.45;100.00;92998.31;5070848;28;20044;-69
2023/03/03 01:47:48;;;;;;;15.98;12.73;;;;;;;2.39;100.00;93002.31;5065891;28;20068;-69
2023/03/03 01:50:25;;;;;;;15.65;12.65;;;;;;;2.30;100.00;93000.75;5045482;28;20090;-69
2023/03/03 01:52:51;;;;;;;17.10;12.48;;;;;;;2.23;100.00;92993.00;5069953;28;20088;-70
2023/03/03 01:55:22;;;;;;;19.83;13.95;;;;;;;2.35;100.00;92988.38;5070290;28;20049;-70
2023/03/03 01:57:55;;;;;;;16.48;13.15;;;;;;;2.46;100.00;92996.56;5070495;28;20041;-69
2023/03/03 02:00:22;;;;;;;17.50;13.70;;;;;;;2.46;100.00;92999.09;5070375;28;20052;-69
2023/03/03 02:02:51;;;;;;;17.48;12.43;;;;;;;2.46;100.00;92994.81;5070498;28;20473;-70
2023/03/03 02:05:18;;;;;;;17.08;12.73;;;;;;;2.52;100.00;92989.09;5069756;28;20052;-69
2023/03/03 02:07:45;;;;;;;17.73;12.82;;;;;;;2.53;100.00;92994.94;5070085;28;20049;-69
2023/03/03 02:10:15;;;;;;;15.02;12.07;;;;;;;2.60;100.00;92982.41;5069968;28;20489;-70
2023/03/03 02:12:44;;;;;;;16.98;13.35;;;;;;;2.59;100.00;92991.75;5069252;28;20106;-69
2023/03/03 02:15:23;;;;;;;17.90;13.02;;;;;;;2.53;100.00;92983.06;5070181;28;20101;-70
2023/03/03 02:17:54;;;;;;;20.70;15.50;;;;;;;2.56;100.00;92992.09;5069499;28;20041;-70
2023/03/03 02:20:36;;;;;;;20.63;15.68;;;;;;;2.56;100.00;92986.22;5069843;28;20079;-69
2023/03/03 02:23:10;;;;;;;18.77;15.43;;;;;;;2.56;100.00;92978.63;5069779;28;20048;-71
2023/03/03 02:25:47;;;;;;;19.05;14.10;;;;;;;2.51;100.00;92974.81;5069698;28;20044;-69
2023/03/03 02:28:15;;;;;;;22.40;15.85;;;;;;;2.52;100.00;92978.16;5069327;28;20747;-69
2023/03/03 02:30:42;;;;;;;21.13;17.40;;;;;;;2.48;100.00;92982.78;5069711;28;20045;-70
2023/03/03 02:33:08;;;;;;;23.95;18.23;;;;;;;2.52;100.00;92980.69;5069644;28;20084;-70
2023/03/03 02:35:37;;;;;;;23.45;16.83;;;;;;;2.50;100.00;92980.09;5069274;28;20048;-70
2023/03/03 02:38:14;;;;;;;29.27;20.58;;;;;;;2.53;100.00;92974.66;5069072;28;20107;-70
2023/03/03 02:40:47;;;;;;;24.70;18.70;;;;;;;2.60;100.00;92975.56;5069207;28;20052;-70
2023/03/03 02:43:18;;;;;;;23.05;18.08;;;;;;;2.65;100.00;92975.84;5068920;28;20049;-70
2023/03/03 02:45:45;;;;;;;20.55;15.13;;;;;;;2.65;100.00;92970.00;5069591;28;20058;-70
2023/03/03 02:48:12;;;;;;;20.30;15.18;;;;;;;2.49;100.00;92976.75;5069158;28;20052;-70
2023/03/03 02:50:39;;;;;;;21.50;15.05;;;;;;;2.48;100.00;92972.63;5069443;28;20122;-70
2023/03/03 02:53:05;;;;;;;20.48;15.75;;;;;;;2.51;100.00;92964.69;5069319;28;20416;-70
2023/03/03 02:55:32;;;;;;;19.05;15.88;;;;;;;2.53;100.00;92974.66;5069636;28;20076;-70
2023/03/03 02:57:59;;;;;;;20.73;17.05;;;;;;;2.41;100.00;92981.88;5068598;28;20493;-70
2023/03/03 03:00:27;;;;;;;18.40;13.43;;;;;;;2.43;100.00;92972.34;5058038;28;20103;-69
2023/03/03 03:02:54;;;;;;;20.08;13.15;;;;;;;2.43;100.00;92976.59;5066136;28;20041;-70
2023/03/03 03:05:21;;;;;;;18.27;12.95;;;;;;;2.44;100.00;92966.31;5069132;28;20106;-70
2023/03/03 03:07:47;;;;;;;19.48;14.23;;;;;;;2.52;100.00;92971.34;5069352;28;20098;-69
2023/03/03 03:10:14;;;;;;;18.05;13.13;;;;;;;2.59;100.00;92968.16;5069163;28;20044;-69
2023/03/03 03:12:41;;;;;;;19.80;15.10;;;;;;;2.49;100.00;92953.91;5068646;28;20114;-69
2023/03/03 03:15:09;;;;;;;15.88;12.45;;;;;;;2.55;100.00;92965.16;5069829;28;20045;-70
2023/03/03 03:17:38;;;;;;;18.98;12.95;;;;;;;2.53;100.00;92969.59;5068364;28;20048;-69
2023/03/03 03:20:06;;;;;;;19.35;13.32;;;;;;;2.52;100.00;92963.75;5067457;28;20044;-69
2023/03/03 03:22:32;;;;;;;19.55;13.60;;;;;;;2.54;100.00;92963.56;5068679;28;20102;-69
2023/03/03 03:24:59;;;;;;;17.20;12.23;;;;;;;2.59;100.00;92963.84;5067959;28;20044;-69
2023/03/03 03:27:26;;;;;;;17.23;12.10;;;;;;;2.60;100.00;92969.72;5068785;28;20118;-69
2023/03/03 03:29:52;;;;;;;17.25;11.98;;;;;;;2.57;100.00;92963.25;5068959;28;20044;-69
2023/03/03 03:32:19;;;;;;;18.63;13.05;;;;;;;2.52;100.00;92963.75;5068702;28;20068;-69
2023/03/03 03:34:47;;;;;;;21.00;13.88;;;;;;;2.53;100.00;92955.19;5069160;28;20137;-70
2023/03/03 03:37:14;;;;;;;16.42;13.38;;;;;;;2.50;100.00;92952.97;5042521;28;20075;-69
2023/03/03 03:39:41;;;;;;;16.00;11.60;;;;;;;2.52;100.00;92955.34;5068536;28;20044;-69
2023/03/03 03:42:07;;;;;;;14.45;11.48;;;;;;;2.54;100.00;92955.94;5045756;28;20440;-69
2023/03/03 03:44:34;;;;;;;15.60;10.57;;;;;;;2.54;100.00;92953.41;5072937;28;20185;-69
2023/03/03 03:47:01;;;;;;;17.92;14.57;;;;;;;2.51;100.00;92948.69;5072926;28;20049;-70
2023/03/03 03:49:28;;;;;;;17.13;14.10;;;;;;;2.50;100.00;92947.88;5072463;28;20105;-69
2023/03/03 03:51:56;;;;;;;16.65;14.05;;;;;;;2.46;100.00;92951.72;5072873;28;20389;-69
2023/03/03 03:54:23;;;;;;;14.52;11.48;;;;;;;2.46;100.00;92948.41;5071998;28;20529;-70
2023/03/03 03:56:49;;;;;;;14.23;11.75;;;;;;;2.38;100.00;92957.63;5072963;28;20126;-70
2023/03/03 03:59:16;;;;;;;14.25;10.65;;;;;;;2.34;100.00;92955.56;5072357;28;20048;-70
2023/03/03 04:01:43;;;;;;;12.75;9.65;;;;;;;2.27;100.00;92952.94;5072507;28;20072;-70
2023/03/03 04:04:10;;;;;;;12.10;9.23;;;;;;;2.18;100.00;92957.22;5072194;28;20428;-69
2023/03/03 04:06:36;;;;;;;13.02;9.75;;;;;;;2.17;100.00;92953.09;5072521;28;20094;-70
2023/03/03 04:09:05;;;;;;;12.30;9.52;;;;;;;2.03;100.00;92943.66;5072210;28;20052;-69
2023/03/03 04:11:31;;;;;;;14.90;11.27;;;;;;;2.05;100.00;92951.88;5072637;28;20098;-69
2023/03/03 04:13:58;;;;;;;14.43;12.68;;;;;;;2.08;100.00;92946.50;5071511;28;20398;-69
2023/03/03 04:16:25;;;;;;;14.43;12.85;;;;;;;2.18;100.00;92953.91;5072139;28;20090;-70
2023/03/03 04:18:52;;;;;;;15.98;13.43;;;;;;;2.22;100.00;92955.16;5072333;28;20443;-69
2023/03/03 04:21:18;;;;;;;11.80;9.82;;;;;;;2.23;100.00;92956.75;5072324;28;20086;-70
2023/03/03 04:23:45;;;;;;;8.80;7.45;;;;;;;2.20;100.00;92952.00;5071817;28;20546;-70
2023/03/03 04:26:13;;;;;;;9.52;7.68;;;;;;;2.11;100.00;92953.75;5072201;28;20098;-70
2023/03/03 04:28:40;;;;;;;7.82;6.50;;;;;;;2.06;100.00;92951.72;5071910;28;21231;-70
2023/03/03 04:31:06;;;;;;;10.70;8.32;;;;;;;2.09;100.00;92951.38;5072062;28;20045;-70
2023/03/03 04:33:33;;;;;;;11.10;10.00;;;;;;;2.17;100.00;92952.34;5071806;28;20497;-70
2023/03/03 04:36:00;;;;;;;9.63;7.10;;;;;;;2.15;100.00;92957.56;5071972;28;20044;-69
2023/03/03 04:38:27;;;;;;;9.45;8.38;;;;;;;2.21;100.00;92956.91;5071449;28;20076;-70
2023/03/03 04:40:53;;;;;;;10.02;8.68;;;;;;;2.19;100.00;92956.28;5072026;28;20125;-69
2023/03/03 04:43:21;;;;;;;9.90;7.90;;;;;;;2.14;100.00;92951.69;5071382;28;20141;-69
2023/03/03 04:45:48;;;;;;;10.00;7.53;;;;;;;2.14;100.00;92959.28;5071642;28;20477;-69
2023/03/03 04:48:15;;;;;;;8.60;6.93;;;;;;;2.12;100.00;92951.06;5071515;28;20045;-70
2023/03/03 04:50:42;;;;;;;8.27;6.57;;;;;;;2.12;100.00;92948.53;5071537;28;20090;-70
2023/03/03 04:53:09;;;;;;;8.93;7.38;;;;;;;1.99;100.00;92959.19;5071172;28;20087;-70
2023/03/03 04:55:36;;;;;;;12.93;9.55;;;;;;;1.99;100.00;92958.41;5071322;28;20052;-70
2023/03/03 04:58:03;;;;;;;11.95;10.68;;;;;;;1.98;100.00;92956.81;5071692;28;20040;-70
2023/03/03 05:00:32;;;;;;;11.95;9.02;;;;;;;2.05;100.00;92954.41;5071773;28;20052;-70
2023/03/03 05:02:59;;;;;;;10.18;8.10;;;;;;;2.15;100.00;92960.09;5071167;28;20118;-70
2023/03/03 05:05:26;;;;;;;9.23;7.45;;;;;;;2.14;100.00;92961.06;5071775;28;20050;-70
2023/03/03 05:07:52;;;;;;;10.35;8.50;;;;;;;2.24;100.00;92964.19;5071395;28;20109;-70
2023/03/03 05:10:19;;;;;;;10.18;8.30;;;;;;;2.21;100.00;92969.56;5070846;28;20101;-70
2023/03/03 05:12:47;;;;;;;13.23;11.57;;;;;;;2.25;100.00;92968.28;5070891;28;20052;-69
2023/03/03 05:15:13;;;;;;;13.50;11.15;;;;;;;2.21;100.00;92969.56;5071416;28;20087;-69
2023/03/03 05:17:41;;;;;;;15.68;14.07;;;;;;;2.25;100.00;92972.56;5071132;28;20048;-70
2023/03/03 05:20:10;;;;;;;14.48;12.98;;;;;;;2.25;100.00;92958.16;5064625;28;20045;-70
2023/03/03 05:22:37;;;;;;;16.23;12.93;;;;;;;2.39;100.00;92966.81;5058921;28;20079;-69
2023/03/03 05:25:04;;;;;;;14.00;12.57;;;;;;;2.33;100.00;92977.63;5070941;28;20045;-69
2023/03/03 05:27:31;;;;;;;11.57;10.05;;;;;;;2.22;100.00;92971.16;5070914;28;20036;-69
2023/03/03 05:29:57;;;;;;;13.60;10.65;;;;;;;2.25;100.00;92970.03;5070320;28;20338;-69
2023/03/03 05:32:24;;;;;;;12.70;9.02;;;;;;;2.30;100.00;92969.56;5070673;28;20064;-69
2023/03/03 05:34:52;;;;;;;15.43;12.68;;;;;;;2.31;100.00;92976.97;5070316;28;20056;-69
2023/03/03 05:37:19;;;;;;;12.95;11.15;;;;;;;2.29;100.00;92980.63;5070637;28;20048;-69
2023/03/03 05:39:46;;;;;;;11.05;8.50;;;;;;;2.26;100.00;92980.00;5070014;28;20533;-69
2023/03/03 05:42:13;;;;;;;11.20;9.27;;;;;;;2.19;100.00;92984.16;5070493;28;20106;-69
2023/03/03 05:44:40;;;;;;;17.63;13.43;;;;;;;2.14;100.00;92979.56;5070133;28;20074;-69
2023/03/03 05:47:07;;;;;;;20.30;14.43;;;;;;;2.16;100.00;92981.16;5070192;28;20587;-70
2023/03/03 05:49:33;;;;;;;18.13;14.68;;;;;;;2.09;100.00;92978.50;5070280;28;20057;-69
2023/03/03 05:52:02;;;;;;;18.38;13.27;;;;;;;2.18;100.00;92981.78;5070361;28;20110;-70
2023/03/03 05:54:28;;;;;;;19.70;13.27;;;;;;;2.20;100.00;92984.94;5069873;28;20048;-69
2023/03/03 05:56:56;;;;;;;27.60;17.30;;;;;;;2.22;100.00;92988.88;5070617;28;20044;-70
2023/03/03 05:59:23;;;;;;;29.15;19.17;;;;;;;2.18;100.00;92986.84;5070259;28;20044;-69
2023/03/03 06:01:50;;;;;;;24.67;15.43;;;;;;;2.26;100.00;92994.41;5070123;28;20044;-69
2023/03/03 06:04:16;;;;;;;20.20;13.65;;;;;;;2.27;100.00;92990.94;5069309;28;20044;-69
2023/03/03 06:06:43;;;;;;;20.42;13.52;;;;;;;2.25;100.00;92985.22;5070118;28;20550;-69
2023/03/03 06:09:11;;;;;;;18.30;14.20;;;;;;;2.26;100.00;92994.41;5070192;28;20101;-69
2023/03/03 06:11:38;;;;;;;17.38;12.52;;;;;;;2.27;100.00;92993.47;5070304;28;20050;-69
2023/03/03 06:14:05;;;;;;;18.65;14.85;;;;;;;2.33;100.00;92999.63;5069691;28;20071;-69
2023/03/03 06:16:32;;;;;;;24.52;20.33;;;;;;;2.33;100.00;93000.44;5069940;28;20044;-69
2023/03/03 06:18:58;;;;;;;19.60;15.77;;;;;;;2.31;100.00;92997.25;5069520;28;20048;-70
2023/03/03 06:21:25;;;;;;;18.13;13.57;;;;;;;2.38;100.00;93000.72;5069969;28;20044;-70
2023/03/03 06:23:52;;;;;;;19.00;13.70;;;;;;;2.47;100.00;93000.69;5070050;28;20083;-69
2023/03/03 06:26:20;;;;;;;20.05;15.32;;;;;;;2.50;100.00;93001.13;5069827;28;20040;-70
2023/03/03 06:28:47;;;;;;;31.48;20.95;;;;;;;2.51;100.00;93010.31;5069740;28;20045;-70
2023/03/03 06:31:13;;;;;;;26.30;18.25;;;;;;;2.64;100.00;93006.47;5069650;28;20546;-70
2023/03/03 06:33:41;;;;;;;16.48;14.30;;;;;;;2.60;100.00;93016.13;5069177;28;20102;-69
2023/03/03 06:36:09;;;;;;;16.15;14.15;;;;;;;2.47;100.00;92981.19;5069336;28;20092;-69
2023/03/03 06:38:36;;;;;;;18.00;16.27;;;;;;;2.66;100.00;93009.63;5068978;28;20110;-69
2023/03/03 06:41:06;;;;;;;12.32;9.98;;;;;;;2.68;100.00;93012.78;5069431;28;20067;-69
2023/03/03 06:43:34;;;;;;;15.18;13.27;;;;;;;2.75;100.00;93007.84;5069678;28;20131;-69
2023/03/03 06:46:00;;;;;;;16.80;11.13;;;;;;;2.79;100.00;93009.09;5069298;28;20066;-69
2023/03/03 06:48:27;;;;;;;15.10;11.20;;;;;;;2.90;100.00;93008.72;5069393;28;20040;-69
2023/03/03 06:50:54;;;;;;;11.55;8.77;;;;;;;2.91;100.00;93019.63;5069418;28;20106;-69
2023/03/03 06:53:20;;;;;;;9.60;8.10;;;;;;;2.93;100.00;93015.97;5068777;28;20508;-69
2023/03/03 06:55:47;;;;;;;11.88;9.27;;;;;;;3.04;100.00;93019.09;5069403;28;20102;-69
2023/03/03 06:58:16;;;;;;;13.25;7.88;;;;;;;3.08;100.00;93020.34;5069279;28;20045;-69
2023/03/03 07:00:45;;;;;;;12.30;8.73;;;;;;;3.10;100.00;93007.50;5069109;28;20500;-69
2023/03/03 07:03:15;;;;;;;11.95;9.88;;;;;;;3.27;100.00;93020.84;5068950;28;20489;-70
2023/03/03 07:05:42;;;;;;;12.35;9.02;;;;;;;3.33;100.00;93022.72;5068625;28;20056;-70
2023/03/03 07:08:14;;;;;;;12.43;8.02;;;;;;;3.45;100.00;93025.66;5068846;28;20385;-70
2023/03/03 07:10:41;;;;;;;11.90;9.90;;;;;;;3.39;100.00;93006.03;5067017;28;20055;-70
2023/03/03 07:13:18;;;;;;;11.02;8.57;;;;;;;3.46;100.00;93009.44;5054944;28;20095;-70
2023/03/03 07:15:47;;;;;;;11.10;8.23;;;;;;;3.60;100.00;93025.69;5066803;28;20573;-71
2023/03/03 07:18:32;;;;;;;11.63;8.27;;;;;;;3.69;100.00;93027.22;5068144;28;20093;-70
2023/03/03 07:20:59;;;;;;;10.38;8.05;;;;;;;3.72;100.00;93028.63;5068741;28;20055;-70
2023/03/03 07:23:30;;;;;;;10.43;8.10;;;;;;;3.79;100.00;93028.72;5069129;28;20044;-70
2023/03/03 07:25:56;;;;;;;10.07;7.63;;;;;;;3.84;100.00;93032.31;5069040;28;20111;-70
2023/03/03 07:28:26;;;;;;;10.35;7.43;;;;;;;3.85;100.00;93031.34;5068413;28;20052;-70
2023/03/03 07:30:55;;;;;;;8.00;6.40;;;;;;;3.71;100.00;92996.56;5068804;28;20052;-70
2023/03/03 07:33:26;;;;;;;7.13;6.30;;;;;;;3.95;100.00;93037.94;5068316;28;20090;-70
2023/03/03 07:35:55;;;;;;;8.35;6.22;;;;;;;3.94;100.00;93033.84;5068971;28;20137;-70
2023/03/03 07:38:28;;;;;;;9.55;7.78;;;;;;;3.97;100.00;93026.66;5068572;28;20053;-70
2023/03/03 07:40:58;;;;;;;8.30;7.00;;;;;;;4.06;100.00;93024.81;5068823;28;20074;-70
2023/03/03 07:43:35;;;;;;;10.00;7.22;;;;;;;4.15;100.00;93020.44;5068419;28;20042;-70
2023/03/03 07:46:21;;;;;;;10.10;7.88;;;;;;;4.26;100.00;93024.31;5068320;28;20084;-70
2023/03/03 07:48:48;;;;;;;11.00;8.40;;;;;;;4.36;100.00;93021.50;5068746;28;20420;-70
2023/03/03 07:51:22;;;;;;;10.48;7.88;;;;;;;4.50;100.00;93027.56;5068396;28;20044;-70
2023/03/03 07:53:49;;;;;;;10.93;8.00;;;;;;;4.64;100.00;93023.41;5068941;28;20052;-70
2023/03/03 07:56:25;;;;;;;12.98;9.82;;;;;;;4.75;100.00;93029.78;5068510;28;20499;-70
2023/03/03 07:58:52;;;;;;;10.80;8.60;;;;;;;4.84;100.00;93026.19;5068541;28;20515;-70
2023/03/03 08:01:39;;;;;;;13.05;9.73;;;;;;;4.97;100.00;93030.66;5068133;28;20122;-70
2023/03/03 08:04:15;;;;;;;18.13;13.48;;;;;;;5.02;100.00;93025.81;5068462;28;20048;-70
2023/03/03 08:06:50;;;;;;;21.48;16.15;;;;;;;4.97;100.00;93030.66;5068593;28;20044;-70
2023/03/03 08:09:39;;;;;;;28.63;19.98;;;;;;;5.02;100.00;93025.00;5068307;28;20084;-71
2023/03/03 08:12:31;;;;;;;25.27;20.38;;;;;;;5.11;100.00;93028.22;5063919;28;20497;-71
2023/03/03 08:15:14;;;;;;;43.92;28.48;;;;;;;5.13;100.00;93011.78;5063750;28;20979;-71
2023/03/03 08:17:44;;;;;;;25.77;18.77;;;;;;;5.24;100.00;93018.19;5041679;28;20045;-71
2023/03/03 08:20:40;;;;;;;19.50;13.82;;;;;;;5.18;100.00;93009.50;5068709;28;20053;-71
2023/03/03 08:23:07;;;;;;;16.33;12.88;;;;;;;5.28;100.00;93019.38;5059233;28;20068;-71
2023/03/03 08:25:34;;;;;;;15.65;11.57;;;;;;;5.35;100.00;93022.81;5068308;28;20044;-71
2023/03/03 08:28:01;;;;;;;12.75;9.98;;;;;;;5.36;100.00;93023.56;5071221;28;20083;-71
2023/03/03 08:30:27;;;;;;;15.93;9.88;;;;;;;5.33;100.00;93022.19;5071250;28;20048;-71
2023/03/03 08:32:55;;;;;;;13.70;10.98;;;;;;;5.35;100.00;93016.91;5071804;28;20497;-71
2023/03/03 08:35:22;;;;;;;17.05;12.63;;;;;;;5.28;100.00;93019.38;5071354;28;20463;-71
2023/03/03 08:37:49;;;;;;;15.10;11.13;;;;;;;5.34;100.00;93015.34;5072102;28;20044;-72
2023/03/03 08:40:16;;;;;;;16.10;12.43;;;;;;;5.34;100.00;93011.00;5071573;28;20165;-72
2023/03/03 08:42:42;;;;;;;17.15;12.88;;;;;;;5.20;100.00;93004.22;5071773;28;20424;-72
2023/03/03 08:45:09;;;;;;;17.30;13.63;;;;;;;5.24;100.00;93008.00;5071723;28;20033;-71
2023/03/03 08:47:38;;;;;;;16.65;12.43;;;;;;;5.19;100.00;93005.97;5071713;28;20055;-71
2023/03/03 08:50:06;;;;;;;16.45;14.50;;;;;;;4.99;100.00;93007.56;5071092;28;20103;-71
2023/03/03 08:52:34;;;;;;;17.65;13.90;;;;;;;5.15;100.00;93006.53;5071599;28;20048;-71
2023/03/03 08:55:00;;;;;;;17.95;14.23;;;;;;;4.91;100.00;93005.91;5071253;28;20059;-71
2023/03/03 08:57:27;;;;;;;19.20;14.63;;;;;;;5.10;100.00;93006.28;5071126;28;20094;-71
2023/03/03 08:59:54;;;;;;;18.75;15.35;;;;;;;5.05;100.00;93012.69;5064999;28;20102;-71
2023/03/03 09:02:20;;;;;;;16.08;13.65;;;;;;;5.05;100.00;93014.47;5064755;28;20049;-71
2023/03/03 09:04:47;;;;;;;18.58;15.10;;;;;;;4.53;100.00;92972.03;5071258;28;20045;-71
2023/03/03 09:07:15;;;;;;;19.60;15.30;;;;;;;5.00;100.00;93014.22;5070729;28;20048;-71
2023/03/03 09:09:42;;;;;;;24.45;16.35;;;;;;;4.65;100.00;93020.69;5071041;28;20045;-72
2023/03/03 09:12:16;;;;;;;22.20;16.83;;;;;;;4.84;100.00;93003.28;5071616;28;20057;-71
2023/03/03 09:14:43;;;;;;;22.13;17.25;;;;;;;5.03;100.00;93006.22;5071605;28;20094;-71
2023/03/03 09:17:24;;;;;;;20.15;14.73;;;;;;;4.72;100.00;92989.44;5070533;28;20118;-72
2023/03/03 09:19:51;;;;;;;22.23;15.40;;;;;;;4.80;100.00;92979.94;5071300;28;20059;-72
2023/03/03 09:22:22;;;;;;;17.55;14.75;;;;;;;4.88;100.00;92978.25;5070292;28;20037;-71
2023/03/03 09:24:54;;;;;;;21.48;16.67;;;;;;;5.07;100.00;93005.69;5070916;28;20523;-71
2023/03/03 09:27:28;;;;;;;28.00;19.67;;;;;;;5.07;100.00;93012.53;5070382;28;20119;-71
2023/03/03 09:29:55;;;;;;;58.13;31.52;;;;;;;5.08;100.00;93007.25;5071134;28;20147;-71
2023/03/03 09:32:31;;;;;;;35.25;25.15;;;;;;;4.74;100.00;93002.78;5070699;28;20048;-71
2023/03/03 09:34:59;;;;;;;38.10;26.13;;;;;;;4.84;100.00;93010.13;5070678;28;20051;-71
2023/03/03 09:37:34;;;;;;;36.17;25.67;;;;;;;4.51;100.00;93001.94;5070539;28;20049;-71
2023/03/03 09:40:01;;;;;;;35.80;24.87;;;;;;;4.72;100.00;93010.59;5056374;28;20092;-71
2023/03/03 09:42:57;;;;;;;30.83;20.70;;;;;;;4.60;100.00;93012.00;5070490;28;20688;-71
2023/03/03 09:45:48;;;;;;;26.98;20.05;;;;;;;4.63;100.00;93012.44;5064634;28;20151;-71
2023/03/03 09:48:52;;;;;;;24.50;19.77;;;;;;;4.75;100.00;93014.53;5070448;28;20045;-71
2023/03/03 09:51:32;;;;;;;31.20;21.08;;;;;;;4.92;100.00;93013.34;5007736;28;20100;-71
2023/03/03 09:54:13;;;;;;;22.38;17.02;;;;;;;4.59;100.00;93011.25;5064271;28;20048;-72
2023/03/03 09:56:44;;;;;;;21.77;15.77;;;;;;;4.11;100.00;92981.06;5043600;28;20082;-71
2023/03/03 09:59:41;;;;;;;21.48;17.23;;;;;;;4.31;100.00;92998.34;5069703;28;20050;-71
2023/03/03 10:02:29;;;;;;;24.48;18.23;;;;;;;4.52;100.00;93002.72;5070099;28;20060;-71
2023/03/03 10:05:12;;;;;;;27.17;19.85;;;;;;;4.76;100.00;92998.28;5070208;28;20566;-71
2023/03/03 10:07:48;;;;;;;28.65;20.45;;;;;;;4.97;100.00;93000.09;5069580;28;20107;-71
2023/03/03 10:11:07;;;;;;;28.90;19.27;;;;;;;5.14;100.00;93008.28;5069644;28;20088;-71
2023/03/03 10:13:51;;;;;;;25.23;18.88;;;;;;;5.21;100.00;93006.59;5018125;28;20080;-71
2023/03/03 10:16:40;;;;;;;33.10;25.17;;;;;;;5.02;100.00;92979.97;5047259;28;20048;-71
2023/03/03 10:19:20;;;;;;;26.27;20.25;;;;;;;4.91;100.00;93000.81;5069261;28;20040;-72
2023/03/03 10:21:51;;;;;;;27.88;21.65;;;;;;;5.00;100.00;92988.75;5069657;28;20048;-71
2023/03/03 10:24:28;;;;;;;33.67;23.75;;;;;;;5.10;100.00;92996.91;5059774;28;20053;-71
2023/03/03 10:27:05;;;;;;;31.25;22.50;;;;;;;4.67;100.00;92962.78;5069470;28;20127;-71
2023/03/03 10:29:42;;;;;;;35.25;25.45;;;;;;;5.10;100.00;92991.81;5069205;28;20044;-71
2023/03/03 10:32:33;;;;;;;36.28;27.58;;;;;;;5.20;100.00;92991.50;5065413;28;20044;-71
2023/03/03 10:35:39;;;;;;;34.05;25.55;;;;;;;5.23;100.00;92993.66;5068048;28;20102;-71
2023/03/03 10:38:23;;;;;;;35.45;26.70;;;;;;;5.42;100.00;92994.81;5069028;28;20052;-71
2023/03/03 10:40:56;;;;;;;32.80;25.48;;;;;;;5.50;100.00;92990.59;5069650;28;20090;-71
2023/03/03 10:43:42;;;;;;;30.30;22.48;;;;;;;5.48;100.00;92995.84;5069118;28;20049;-71
2023/03/03 10:46:34;;;;;;;32.72;25.08;;;;;;;5.64;100.00;92992.25;5069466;28;20084;-72
2023/03/03 10:49:20;;;;;;;29.40;23.38;;;;;;;5.47;100.00;92987.41;5049046;28;20189;-72
2023/03/03 10:52:02;;;;;;;28.77;22.10;;;;;;;5.48;100.00;92983.13;5069191;28;20118;-71
2023/03/03 10:54:54;;;;;;;31.00;23.60;;;;;;;5.48;100.00;92990.75;5069282;28;20083;-72
2023/03/03 10:57:26;;;;;;;27.05;21.58;;;;;;;5.37;100.00;92986.16;5069255;28;20101;-71
2023/03/03 11:00:04;;;;;;;28.33;19.88;;;;;;;5.44;100.00;92980.16;5069276;28;20102;-71
2023/03/03 11:02:42;;;;;;;23.02;18.92;;;;;;;5.44;100.00;92977.59;5069070;28;20401;-71
2023/03/03 11:05:28;;;;;;;29.80;22.48;;;;;;;5.59;100.00;92980.06;5069449;28;20107;-71
2023/03/03 11:08:01;;;;;;;31.05;23.98;;;;;;;5.73;100.00;92985.25;5069038;28;20467;-71
2023/03/03 11:10:43;;;;;;;47.70;30.70;;;;;;;5.85;100.00;92972.81;5068873;28;20386;-71
2023/03/03 11:13:17;;;;;;;30.83;23.85;;;;;;;5.87;100.00;92975.94;5063775;28;20091;-71
2023/03/03 11:15:54;;;;;;;25.13;19.77;;;;;;;5.69;100.00;92964.47;5066261;28;20084;-71
2023/03/03 11:18:35;;;;;;;24.27;19.55;;;;;;;5.71;100.00;92966.81;5069301;28;20531;-71
2023/03/03 11:21:13;;;;;;;22.00;17.85;;;;;;;5.57;100.00;92964.19;5069138;28;20084;-71
2023/03/03 11:23:58;;;;;;;24.05;18.35;;;;;;;5.16;100.00;92952.09;5068619;28;20044;-72
2023/03/03 11:26:49;;;;;;;22.25;18.02;;;;;;;4.81;100.00;92958.63;5069580;28;20442;-72
2023/03/03 11:29:34;;;;;;;27.30;20.65;;;;;;;4.61;100.00;92953.31;5046185;28;20493;-71
2023/03/03 11:32:19;;;;;;;24.67;19.13;;;;;;;4.62;100.00;92952.34;5068350;28;20040;-71
2023/03/03 11:35:02;;;;;;;27.55;20.85;;;;;;;4.68;100.00;92954.19;5069103;28;20040;-71
2023/03/03 11:37:39;;;;;;;27.08;19.33;;;;;;;4.64;100.00;92962.34;5069118;28;21076;-71